sensor_id;sensor_type;location;lat;lon;timestamp;temperature;humidity
17918;DHT22;9084;50.956;3.106;2024-01-30T00:00:14;10.30;99.90
17918;DHT22;9084;50.956;3.106;2024-01-30T00:02:40;10.40;99.90
17918;DHT22;9084;50.956;3.106;2024-01-30T00:05:06;10.40;99.90
17918;DHT22;9084;50.956;3.106;2024-01-30T00:07:34;10.40;99.90
17918;DHT22;9084;50.956;3.106;2024-01-30T00:10:02;10.40;99.90
17918;DHT22;9084;50.956;3.106;2024-01-30T00:12:28;10.40;99.90
17918;DHT22;9084;50.956;3.106;2024-01-30T00:14:53;10.40;99.90
17918;DHT22;9084;50.956;3.106;2024-01-30T00:17:19;10.40;99.90
17918;DHT22;9084;50.956;3.106;2024-01-30T00:19:48;10.30;99.90
17918;DHT22;9084;50.956;3.106;2024-01-30T00:22:14;10.30;99.90
17918;DHT22;9084;50.956;3.106;2024-01-30T00:24:41;10.20;99.90
17918;DHT22;9084;50.956;3.106;2024-01-30T00:27:08;10.20;99.90
17918;DHT22;9084;50.956;3.106;2024-01-30T00:29:34;10.20;99.90
17918;DHT22;9084;50.956;3.106;2024-01-30T00:32:01;10.20;99.90
17918;DHT22;9084;50.956;3.106;2024-01-30T00:34:27;10.10;99.90
17918;DHT22;9084;50.956;3.106;2024-01-30T00:36:55;10.10;99.90
17918;DHT22;9084;50.956;3.106;2024-01-30T00:39:21;10.00;99.90
17918;DHT22;9084;50.956;3.106;2024-01-30T00:41:49;10.00;99.90
17918;DHT22;9084;50.956;3.106;2024-01-30T00:44:15;9.90;99.90
17918;DHT22;9084;50.956;3.106;2024-01-30T00:46:42;9.90;99.90
17918;DHT22;9084;50.956;3.106;2024-01-30T00:49:10;9.90;99.90
17918;DHT22;9084;50.956;3.106;2024-01-30T00:51:36;9.90;99.90
17918;DHT22;9084;50.956;3.106;2024-01-30T00:54:02;9.90;99.90
17918;DHT22;9084;50.956;3.106;2024-01-30T00:56:31;9.90;99.90
17918;DHT22;9084;50.956;3.106;2024-01-30T00:59:00;9.90;99.90
17918;DHT22;9084;50.956;3.106;2024-01-30T01:01:25;9.90;99.90
17918;DHT22;9084;50.956;3.106;2024-01-30T01:03:51;9.90;99.90
17918;DHT22;9084;50.956;3.106;2024-01-30T01:06:17;9.90;99.90
17918;DHT22;9084;50.956;3.106;2024-01-30T01:08:47;9.90;99.90
17918;DHT22;9084;50.956;3.106;2024-01-30T01:11:15;10.00;99.90
17918;DHT22;9084;50.956;3.106;2024-01-30T01:13:41;10.00;99.90
17918;DHT22;9084;50.956;3.106;2024-01-30T01:16:06;9.90;99.90
17918;DHT22;9084;50.956;3.106;2024-01-30T01:18:32;9.90;99.90
17918;DHT22;9084;50.956;3.106;2024-01-30T01:21:00;9.90;99.90
17918;DHT22;9084;50.956;3.106;2024-01-30T01:23:26;9.80;99.90
17918;DHT22;9084;50.956;3.106;2024-01-30T01:25:52;9.80;99.90
17918;DHT22;9084;50.956;3.106;2024-01-30T01:28:17;9.80;99.90
17918;DHT22;9084;50.956;3.106;2024-01-30T01:30:46;9.80;99.90
17918;DHT22;9084;50.956;3.106;2024-01-30T01:33:12;9.70;99.90
17918;DHT22;9084;50.956;3.106;2024-01-30T01:35:41;9.70;99.90
17918;DHT22;9084;50.956;3.106;2024-01-30T01:38:07;9.70;99.90
17918;DHT22;9084;50.956;3.106;2024-01-30T01:40:33;9.70;99.90
17918;DHT22;9084;50.956;3.106;2024-01-30T01:42:58;9.60;99.90
17918;DHT22;9084;50.956;3.106;2024-01-30T01:45:26;9.60;99.90
17918;DHT22;9084;50.956;3.106;2024-01-30T01:47:52;9.60;99.90
17918;DHT22;9084;50.956;3.106;2024-01-30T01:50:19;9.60;99.90
17918;DHT22;9084;50.956;3.106;2024-01-30T01:52:52;9.60;99.90
17918;DHT22;9084;50.956;3.106;2024-01-30T01:55:21;9.60;99.90
17918;DHT22;9084;50.956;3.106;2024-01-30T01:57:47;9.60;99.90
17918;DHT22;9084;50.956;3.106;2024-01-30T02:00:14;9.70;99.90
17918;DHT22;9084;50.956;3.106;2024-01-30T02:02:41;9.70;99.90
17918;DHT22;9084;50.956;3.106;2024-01-30T02:05:10;9.70;99.90
17918;DHT22;9084;50.956;3.106;2024-01-30T02:07:38;9.70;99.90
17918;DHT22;9084;50.956;3.106;2024-01-30T02:10:09;9.80;99.90
17918;DHT22;9084;50.956;3.106;2024-01-30T02:12:37;9.80;99.90
17918;DHT22;9084;50.956;3.106;2024-01-30T02:15:06;9.80;99.90
17918;DHT22;9084;50.956;3.106;2024-01-30T02:17:35;9.90;99.90
17918;DHT22;9084;50.956;3.106;2024-01-30T02:20:08;9.80;99.90
17918;DHT22;9084;50.956;3.106;2024-01-30T02:22:37;9.90;99.90
17918;DHT22;9084;50.956;3.106;2024-01-30T02:25:04;9.90;99.90
17918;DHT22;9084;50.956;3.106;2024-01-30T02:27:32;9.90;99.90
17918;DHT22;9084;50.956;3.106;2024-01-30T02:29:58;10.00;99.90
17918;DHT22;9084;50.956;3.106;2024-01-30T02:32:24;10.00;99.90
17918;DHT22;9084;50.956;3.106;2024-01-30T02:34:50;10.00;99.90
17918;DHT22;9084;50.956;3.106;2024-01-30T02:37:16;10.10;99.90
17918;DHT22;9084;50.956;3.106;2024-01-30T02:39:44;10.10;99.90
17918;DHT22;9084;50.956;3.106;2024-01-30T02:42:10;10.10;99.90
17918;DHT22;9084;50.956;3.106;2024-01-30T02:44:37;10.10;99.90
17918;DHT22;9084;50.956;3.106;2024-01-30T02:47:02;10.10;99.90
17918;DHT22;9084;50.956;3.106;2024-01-30T02:49:30;10.10;99.90
17918;DHT22;9084;50.956;3.106;2024-01-30T02:51:55;10.10;99.90
17918;DHT22;9084;50.956;3.106;2024-01-30T02:54:25;10.10;99.90
17918;DHT22;9084;50.956;3.106;2024-01-30T02:56:51;10.10;99.90
17918;DHT22;9084;50.956;3.106;2024-01-30T02:59:17;10.10;99.90
17918;DHT22;9084;50.956;3.106;2024-01-30T03:01:44;10.10;99.90
17918;DHT22;9084;50.956;3.106;2024-01-30T03:04:13;10.10;99.90
17918;DHT22;9084;50.956;3.106;2024-01-30T03:06:38;10.00;99.90
17918;DHT22;9084;50.956;3.106;2024-01-30T03:09:04;9.90;99.90
17918;DHT22;9084;50.956;3.106;2024-01-30T03:11:30;10.00;99.90
17918;DHT22;9084;50.956;3.106;2024-01-30T03:13:56;9.90;99.90
17918;DHT22;9084;50.956;3.106;2024-01-30T03:16:22;9.90;99.90
17918;DHT22;9084;50.956;3.106;2024-01-30T03:18:47;9.90;99.90
17918;DHT22;9084;50.956;3.106;2024-01-30T03:21:13;9.80;99.90
17918;DHT22;9084;50.956;3.106;2024-01-30T03:23:42;9.90;99.90
17918;DHT22;9084;50.956;3.106;2024-01-30T03:26:10;9.90;99.90
17918;DHT22;9084;50.956;3.106;2024-01-30T03:28:37;9.80;99.90
17918;DHT22;9084;50.956;3.106;2024-01-30T03:31:08;9.80;99.90
17918;DHT22;9084;50.956;3.106;2024-01-30T03:33:39;9.80;99.90
17918;DHT22;9084;50.956;3.106;2024-01-30T03:36:05;9.80;99.90
17918;DHT22;9084;50.956;3.106;2024-01-30T03:38:31;9.80;99.90
17918;DHT22;9084;50.956;3.106;2024-01-30T03:40:58;9.70;99.90
17918;DHT22;9084;50.956;3.106;2024-01-30T03:43:24;9.80;99.90
17918;DHT22;9084;50.956;3.106;2024-01-30T03:45:50;9.80;99.90
17918;DHT22;9084;50.956;3.106;2024-01-30T03:48:15;9.80;99.90
17918;DHT22;9084;50.956;3.106;2024-01-30T03:50:41;9.80;99.90
17918;DHT22;9084;50.956;3.106;2024-01-30T03:53:07;9.90;99.90
17918;DHT22;9084;50.956;3.106;2024-01-30T03:55:37;9.90;99.90
17918;DHT22;9084;50.956;3.106;2024-01-30T03:58:03;9.80;99.90
17918;DHT22;9084;50.956;3.106;2024-01-30T04:00:30;9.90;99.90
17918;DHT22;9084;50.956;3.106;2024-01-30T04:02:56;9.90;99.90
17918;DHT22;9084;50.956;3.106;2024-01-30T04:05:24;9.90;99.90
17918;DHT22;9084;50.956;3.106;2024-01-30T04:07:52;9.90;99.90
17918;DHT22;9084;50.956;3.106;2024-01-30T04:10:18;10.00;99.90
17918;DHT22;9084;50.956;3.106;2024-01-30T04:12:45;10.00;99.90
17918;DHT22;9084;50.956;3.106;2024-01-30T04:15:11;10.00;99.90
17918;DHT22;9084;50.956;3.106;2024-01-30T04:17:41;10.00;99.90
17918;DHT22;9084;50.956;3.106;2024-01-30T04:20:14;9.90;99.90
17918;DHT22;9084;50.956;3.106;2024-01-30T04:22:42;9.90;99.90
17918;DHT22;9084;50.956;3.106;2024-01-30T04:25:07;10.00;99.90
17918;DHT22;9084;50.956;3.106;2024-01-30T04:27:35;10.00;99.90
17918;DHT22;9084;50.956;3.106;2024-01-30T04:30:01;9.90;99.90
17918;DHT22;9084;50.956;3.106;2024-01-30T04:32:26;10.00;99.90
17918;DHT22;9084;50.956;3.106;2024-01-30T04:34:54;10.00;99.90
17918;DHT22;9084;50.956;3.106;2024-01-30T04:37:20;10.00;99.90
17918;DHT22;9084;50.956;3.106;2024-01-30T04:39:46;10.00;99.90
17918;DHT22;9084;50.956;3.106;2024-01-30T04:42:11;10.10;99.90
17918;DHT22;9084;50.956;3.106;2024-01-30T04:44:39;10.20;99.90
17918;DHT22;9084;50.956;3.106;2024-01-30T04:47:07;10.10;99.90
17918;DHT22;9084;50.956;3.106;2024-01-30T04:49:34;10.20;99.90
17918;DHT22;9084;50.956;3.106;2024-01-30T04:52:00;10.20;99.90
17918;DHT22;9084;50.956;3.106;2024-01-30T04:54:28;10.30;99.90
17918;DHT22;9084;50.956;3.106;2024-01-30T04:56:56;10.30;99.90
17918;DHT22;9084;50.956;3.106;2024-01-30T04:59:22;10.30;99.90
17918;DHT22;9084;50.956;3.106;2024-01-30T05:01:47;10.30;99.90
17918;DHT22;9084;50.956;3.106;2024-01-30T05:04:16;10.30;99.90
17918;DHT22;9084;50.956;3.106;2024-01-30T05:06:41;10.30;99.90
17918;DHT22;9084;50.956;3.106;2024-01-30T05:09:07;10.40;99.90
17918;DHT22;9084;50.956;3.106;2024-01-30T05:11:40;10.40;99.90
17918;DHT22;9084;50.956;3.106;2024-01-30T05:14:07;10.50;99.90
17918;DHT22;9084;50.956;3.106;2024-01-30T05:16:34;10.50;99.90
17918;DHT22;9084;50.956;3.106;2024-01-30T05:19:03;10.50;99.90
17918;DHT22;9084;50.956;3.106;2024-01-30T05:21:29;10.50;99.90
17918;DHT22;9084;50.956;3.106;2024-01-30T05:23:57;10.50;99.90
17918;DHT22;9084;50.956;3.106;2024-01-30T05:26:25;10.50;99.90
17918;DHT22;9084;50.956;3.106;2024-01-30T05:28:53;10.50;99.90
17918;DHT22;9084;50.956;3.106;2024-01-30T05:31:18;10.60;99.90
17918;DHT22;9084;50.956;3.106;2024-01-30T05:33:44;10.60;99.90
17918;DHT22;9084;50.956;3.106;2024-01-30T05:36:12;10.60;99.90
17918;DHT22;9084;50.956;3.106;2024-01-30T05:38:38;10.60;99.90
17918;DHT22;9084;50.956;3.106;2024-01-30T05:41:08;10.60;99.90
17918;DHT22;9084;50.956;3.106;2024-01-30T05:43:33;10.60;99.90
17918;DHT22;9084;50.956;3.106;2024-01-30T05:45:59;10.60;99.90
17918;DHT22;9084;50.956;3.106;2024-01-30T05:48:25;10.60;99.90
17918;DHT22;9084;50.956;3.106;2024-01-30T05:50:51;10.60;99.90
17918;DHT22;9084;50.956;3.106;2024-01-30T05:53:16;10.70;99.90
17918;DHT22;9084;50.956;3.106;2024-01-30T05:55:44;10.70;99.90
17918;DHT22;9084;50.956;3.106;2024-01-30T05:58:10;10.70;99.90
17918;DHT22;9084;50.956;3.106;2024-01-30T06:00:35;10.70;99.90
17918;DHT22;9084;50.956;3.106;2024-01-30T06:03:01;10.70;99.90
17918;DHT22;9084;50.956;3.106;2024-01-30T06:05:26;10.70;99.90
17918;DHT22;9084;50.956;3.106;2024-01-30T06:07:52;10.70;99.90
17918;DHT22;9084;50.956;3.106;2024-01-30T06:10:20;10.70;99.90
17918;DHT22;9084;50.956;3.106;2024-01-30T06:12:48;10.60;99.90
17918;DHT22;9084;50.956;3.106;2024-01-30T06:15:16;10.60;99.90
17918;DHT22;9084;50.956;3.106;2024-01-30T06:17:42;10.60;99.90
17918;DHT22;9084;50.956;3.106;2024-01-30T06:20:10;10.70;99.90
17918;DHT22;9084;50.956;3.106;2024-01-30T06:22:36;10.70;99.90
17918;DHT22;9084;50.956;3.106;2024-01-30T06:25:04;10.70;99.90
17918;DHT22;9084;50.956;3.106;2024-01-30T06:27:32;10.70;99.90
17918;DHT22;9084;50.956;3.106;2024-01-30T06:29:58;10.70;99.90
17918;DHT22;9084;50.956;3.106;2024-01-30T06:32:24;10.70;99.90
17918;DHT22;9084;50.956;3.106;2024-01-30T06:34:55;10.70;99.90
17918;DHT22;9084;50.956;3.106;2024-01-30T06:37:22;10.70;99.90
17918;DHT22;9084;50.956;3.106;2024-01-30T06:39:50;10.70;99.90
17918;DHT22;9084;50.956;3.106;2024-01-30T06:42:17;10.70;99.90
17918;DHT22;9084;50.956;3.106;2024-01-30T06:44:43;10.70;99.90
17918;DHT22;9084;50.956;3.106;2024-01-30T06:47:13;10.80;99.90
17918;DHT22;9084;50.956;3.106;2024-01-30T06:49:38;10.80;99.90
17918;DHT22;9084;50.956;3.106;2024-01-30T06:52:07;10.80;99.90
17918;DHT22;9084;50.956;3.106;2024-01-30T06:54:35;10.90;99.90
17918;DHT22;9084;50.956;3.106;2024-01-30T06:57:02;10.90;99.90
17918;DHT22;9084;50.956;3.106;2024-01-30T06:59:27;10.90;99.90
17918;DHT22;9084;50.956;3.106;2024-01-30T07:01:53;10.90;99.90
17918;DHT22;9084;50.956;3.106;2024-01-30T07:04:19;10.90;99.90
17918;DHT22;9084;50.956;3.106;2024-01-30T07:06:47;10.90;99.90
17918;DHT22;9084;50.956;3.106;2024-01-30T07:09:13;10.90;99.90
17918;DHT22;9084;50.956;3.106;2024-01-30T07:11:39;10.90;99.90
17918;DHT22;9084;50.956;3.106;2024-01-30T07:14:04;10.90;99.90
17918;DHT22;9084;50.956;3.106;2024-01-30T07:16:32;11.00;99.90
17918;DHT22;9084;50.956;3.106;2024-01-30T07:19:02;11.00;99.90
17918;DHT22;9084;50.956;3.106;2024-01-30T07:21:30;10.90;99.90
17918;DHT22;9084;50.956;3.106;2024-01-30T07:23:56;10.90;99.90
17918;DHT22;9084;50.956;3.106;2024-01-30T07:26:22;10.90;99.90
17918;DHT22;9084;50.956;3.106;2024-01-30T07:28:48;10.90;99.90
17918;DHT22;9084;50.956;3.106;2024-01-30T07:31:13;10.90;99.90
17918;DHT22;9084;50.956;3.106;2024-01-30T07:33:41;10.90;99.90
17918;DHT22;9084;50.956;3.106;2024-01-30T07:36:07;10.90;99.90
17918;DHT22;9084;50.956;3.106;2024-01-30T07:38:33;10.90;99.90
17918;DHT22;9084;50.956;3.106;2024-01-30T07:41:01;10.90;99.90
17918;DHT22;9084;50.956;3.106;2024-01-30T07:43:28;10.90;99.90
17918;DHT22;9084;50.956;3.106;2024-01-30T07:45:56;10.90;99.90
17918;DHT22;9084;50.956;3.106;2024-01-30T07:48:22;10.90;99.90
17918;DHT22;9084;50.956;3.106;2024-01-30T07:50:48;10.90;99.90
17918;DHT22;9084;50.956;3.106;2024-01-30T07:53:18;10.90;99.90
17918;DHT22;9084;50.956;3.106;2024-01-30T07:55:49;10.90;99.90
17918;DHT22;9084;50.956;3.106;2024-01-30T07:58:17;11.00;99.90
17918;DHT22;9084;50.956;3.106;2024-01-30T08:00:45;11.00;99.90
17918;DHT22;9084;50.956;3.106;2024-01-30T08:03:11;11.00;99.90
17918;DHT22;9084;50.956;3.106;2024-01-30T08:05:39;11.00;99.90
17918;DHT22;9084;50.956;3.106;2024-01-30T08:08:05;11.00;99.90
17918;DHT22;9084;50.956;3.106;2024-01-30T08:10:30;11.00;99.90
17918;DHT22;9084;50.956;3.106;2024-01-30T08:12:59;11.00;99.90
17918;DHT22;9084;50.956;3.106;2024-01-30T08:15:24;11.00;99.90
17918;DHT22;9084;50.956;3.106;2024-01-30T08:17:50;11.10;99.90
17918;DHT22;9084;50.956;3.106;2024-01-30T08:20:21;11.10;99.90
17918;DHT22;9084;50.956;3.106;2024-01-30T08:22:46;11.10;99.90
17918;DHT22;9084;50.956;3.106;2024-01-30T08:25:12;11.10;99.90
17918;DHT22;9084;50.956;3.106;2024-01-30T08:27:38;11.10;99.90
17918;DHT22;9084;50.956;3.106;2024-01-30T08:30:07;11.10;99.90
17918;DHT22;9084;50.956;3.106;2024-01-30T08:32:35;11.10;99.90
17918;DHT22;9084;50.956;3.106;2024-01-30T08:35:01;11.10;99.90
17918;DHT22;9084;50.956;3.106;2024-01-30T08:37:29;11.10;99.90
17918;DHT22;9084;50.956;3.106;2024-01-30T08:39:55;11.10;99.90
17918;DHT22;9084;50.956;3.106;2024-01-30T08:42:23;11.00;99.90
17918;DHT22;9084;50.956;3.106;2024-01-30T08:44:49;11.00;99.90
17918;DHT22;9084;50.956;3.106;2024-01-30T08:47:16;11.00;99.90
17918;DHT22;9084;50.956;3.106;2024-01-30T08:49:43;11.00;99.90
17918;DHT22;9084;50.956;3.106;2024-01-30T08:52:10;10.90;99.90
17918;DHT22;9084;50.956;3.106;2024-01-30T08:54:38;10.90;99.90
17918;DHT22;9084;50.956;3.106;2024-01-30T08:57:04;10.90;99.90
17918;DHT22;9084;50.956;3.106;2024-01-30T08:59:30;10.90;99.90
17918;DHT22;9084;50.956;3.106;2024-01-30T09:01:55;10.90;99.90
17918;DHT22;9084;50.956;3.106;2024-01-30T09:04:24;10.80;99.90
17918;DHT22;9084;50.956;3.106;2024-01-30T09:06:50;10.70;99.90
17918;DHT22;9084;50.956;3.106;2024-01-30T09:09:16;10.70;99.90
17918;DHT22;9084;50.956;3.106;2024-01-30T09:11:43;10.60;99.90
17918;DHT22;9084;50.956;3.106;2024-01-30T09:14:09;10.60;99.90
17918;DHT22;9084;50.956;3.106;2024-01-30T09:16:34;10.60;99.90
17918;DHT22;9084;50.956;3.106;2024-01-30T09:19:00;10.60;99.90
17918;DHT22;9084;50.956;3.106;2024-01-30T09:21:28;10.60;99.90
17918;DHT22;9084;50.956;3.106;2024-01-30T09:23:54;10.50;99.90
17918;DHT22;9084;50.956;3.106;2024-01-30T09:26:29;10.50;99.90
17918;DHT22;9084;50.956;3.106;2024-01-30T09:28:57;10.50;99.90
17918;DHT22;9084;50.956;3.106;2024-01-30T09:31:22;10.50;99.90
17918;DHT22;9084;50.956;3.106;2024-01-30T09:33:50;10.50;99.90
17918;DHT22;9084;50.956;3.106;2024-01-30T09:36:19;10.50;99.90
17918;DHT22;9084;50.956;3.106;2024-01-30T09:38:45;10.50;99.90
17918;DHT22;9084;50.956;3.106;2024-01-30T09:41:14;10.60;99.90
17918;DHT22;9084;50.956;3.106;2024-01-30T09:43:42;10.60;99.90
17918;DHT22;9084;50.956;3.106;2024-01-30T09:46:12;10.60;99.90
17918;DHT22;9084;50.956;3.106;2024-01-30T09:48:41;10.70;99.90
17918;DHT22;9084;50.956;3.106;2024-01-30T09:51:10;10.70;99.90
17918;DHT22;9084;50.956;3.106;2024-01-30T09:53:39;10.70;99.90
17918;DHT22;9084;50.956;3.106;2024-01-30T09:56:08;10.80;99.90
17918;DHT22;9084;50.956;3.106;2024-01-30T09:58:34;10.80;99.90
17918;DHT22;9084;50.956;3.106;2024-01-30T10:01:02;10.80;99.90
17918;DHT22;9084;50.956;3.106;2024-01-30T10:03:30;10.80;99.90
17918;DHT22;9084;50.956;3.106;2024-01-30T10:05:56;10.90;99.90
17918;DHT22;9084;50.956;3.106;2024-01-30T10:08:26;10.90;99.90
17918;DHT22;9084;50.956;3.106;2024-01-30T10:10:52;11.00;99.90
17918;DHT22;9084;50.956;3.106;2024-01-30T10:13:18;11.10;99.90
17918;DHT22;9084;50.956;3.106;2024-01-30T10:15:50;11.10;92.30
17918;DHT22;9084;50.956;3.106;2024-01-30T10:18:17;11.20;96.50
17918;DHT22;9084;50.956;3.106;2024-01-30T10:20:42;11.30;63.50
17918;DHT22;9084;50.956;3.106;2024-01-30T10:23:08;11.30;52.70
17918;DHT22;9084;50.956;3.106;2024-01-30T10:25:37;11.30;38.20
17918;DHT22;9084;50.956;3.106;2024-01-30T10:28:06;11.30;32.90
17918;DHT22;9084;50.956;3.106;2024-01-30T10:30:31;11.30;27.40
17918;DHT22;9084;50.956;3.106;2024-01-30T10:32:59;11.30;27.60
17918;DHT22;9084;50.956;3.106;2024-01-30T10:35:25;11.20;24.30
17918;DHT22;9084;50.956;3.106;2024-01-30T10:37:57;11.10;22.90
17918;DHT22;9084;50.956;3.106;2024-01-30T10:40:28;11.10;33.50
17918;DHT22;9084;50.956;3.106;2024-01-30T10:42:55;11.10;28.90
17918;DHT22;9084;50.956;3.106;2024-01-30T10:45:24;11.10;33.00
17918;DHT22;9084;50.956;3.106;2024-01-30T10:47:55;11.10;35.50
17918;DHT22;9084;50.956;3.106;2024-01-30T10:50:24;11.10;42.10
17918;DHT22;9084;50.956;3.106;2024-01-30T10:52:51;11.10;47.20
17918;DHT22;9084;50.956;3.106;2024-01-30T10:55:21;11.10;51.50
17918;DHT22;9084;50.956;3.106;2024-01-30T10:57:48;11.10;56.20
17918;DHT22;9084;50.956;3.106;2024-01-30T11:00:14;11.10;59.10
17918;DHT22;9084;50.956;3.106;2024-01-30T11:02:43;11.20;67.20
17918;DHT22;9084;50.956;3.106;2024-01-30T11:05:12;11.20;60.30
17918;DHT22;9084;50.956;3.106;2024-01-30T11:07:41;11.30;10.10
17918;DHT22;9084;50.956;3.106;2024-01-30T11:10:09;11.30;1.00
17918;DHT22;9084;50.956;3.106;2024-01-30T11:12:41;11.20;1.00
17918;DHT22;9084;50.956;3.106;2024-01-30T11:15:18;11.30;1.00
17918;DHT22;9084;50.956;3.106;2024-01-30T11:17:53;11.30;1.00
17918;DHT22;9084;50.956;3.106;2024-01-30T11:20:27;11.40;1.00
17918;DHT22;9084;50.956;3.106;2024-01-30T11:22:55;11.30;1.00
17918;DHT22;9084;50.956;3.106;2024-01-30T11:25:21;11.20;1.00
17918;DHT22;9084;50.956;3.106;2024-01-30T11:27:50;11.20;1.00
17918;DHT22;9084;50.956;3.106;2024-01-30T11:30:26;11.10;99.90
17918;DHT22;9084;50.956;3.106;2024-01-30T11:33:11;11.00;1.00
17918;DHT22;9084;50.956;3.106;2024-01-30T11:35:41;10.90;1.00
17918;DHT22;9084;50.956;3.106;2024-01-30T11:38:08;10.90;99.90
17918;DHT22;9084;50.956;3.106;2024-01-30T11:40:40;10.90;99.90
17918;DHT22;9084;50.956;3.106;2024-01-30T11:43:07;10.90;99.90
17918;DHT22;9084;50.956;3.106;2024-01-30T11:45:34;10.80;99.90
17918;DHT22;9084;50.956;3.106;2024-01-30T11:48:03;10.70;99.90
17918;DHT22;9084;50.956;3.106;2024-01-30T11:50:30;10.70;99.90
17918;DHT22;9084;50.956;3.106;2024-01-30T11:52:56;10.70;99.90
17918;DHT22;9084;50.956;3.106;2024-01-30T11:55:24;10.70;99.90
17918;DHT22;9084;50.956;3.106;2024-01-30T11:57:50;10.70;99.90
17918;DHT22;9084;50.956;3.106;2024-01-30T12:00:19;10.80;99.90
17918;DHT22;9084;50.956;3.106;2024-01-30T12:02:50;10.70;99.90
17918;DHT22;9084;50.956;3.106;2024-01-30T12:05:15;10.60;99.90
17918;DHT22;9084;50.956;3.106;2024-01-30T12:07:46;10.60;1.00
17918;DHT22;9084;50.956;3.106;2024-01-30T12:10:18;10.60;99.90
17918;DHT22;9084;50.956;3.106;2024-01-30T12:12:51;10.60;1.00
17918;DHT22;9084;50.956;3.106;2024-01-30T12:15:21;10.50;1.00
17918;DHT22;9084;50.956;3.106;2024-01-30T12:17:50;10.50;1.00
17918;DHT22;9084;50.956;3.106;2024-01-30T12:20:18;10.50;1.00
17918;DHT22;9084;50.956;3.106;2024-01-30T12:22:45;10.50;1.00
17918;DHT22;9084;50.956;3.106;2024-01-30T12:25:16;10.50;1.00
17918;DHT22;9084;50.956;3.106;2024-01-30T12:27:48;10.50;1.00
17918;DHT22;9084;50.956;3.106;2024-01-30T12:30:20;10.50;1.00
17918;DHT22;9084;50.956;3.106;2024-01-30T12:32:47;10.50;1.00
17918;DHT22;9084;50.956;3.106;2024-01-30T12:35:17;10.50;1.00
17918;DHT22;9084;50.956;3.106;2024-01-30T12:37:43;10.50;1.00
17918;DHT22;9084;50.956;3.106;2024-01-30T12:40:13;10.50;1.00
17918;DHT22;9084;50.956;3.106;2024-01-30T12:42:45;10.50;1.00
17918;DHT22;9084;50.956;3.106;2024-01-30T12:45:19;10.50;1.00
17918;DHT22;9084;50.956;3.106;2024-01-30T12:47:47;10.60;1.00
17918;DHT22;9084;50.956;3.106;2024-01-30T12:50:15;10.50;1.00
17918;DHT22;9084;50.956;3.106;2024-01-30T12:52:46;10.50;1.00
17918;DHT22;9084;50.956;3.106;2024-01-30T12:55:11;10.50;1.00
17918;DHT22;9084;50.956;3.106;2024-01-30T12:57:38;10.40;1.00
17918;DHT22;9084;50.956;3.106;2024-01-30T13:00:05;10.40;1.00
17918;DHT22;9084;50.956;3.106;2024-01-30T13:02:35;10.40;1.00
17918;DHT22;9084;50.956;3.106;2024-01-30T13:05:05;10.40;1.00
17918;DHT22;9084;50.956;3.106;2024-01-30T13:07:31;10.40;1.00
17918;DHT22;9084;50.956;3.106;2024-01-30T13:09:57;10.30;1.00
17918;DHT22;9084;50.956;3.106;2024-01-30T13:12:28;10.30;1.00
17918;DHT22;9084;50.956;3.106;2024-01-30T13:14:56;10.30;1.00
17918;DHT22;9084;50.956;3.106;2024-01-30T13:17:22;10.30;1.00
17918;DHT22;9084;50.956;3.106;2024-01-30T13:19:47;10.30;1.00
17918;DHT22;9084;50.956;3.106;2024-01-30T13:22:15;10.30;1.00
17918;DHT22;9084;50.956;3.106;2024-01-30T13:24:45;10.40;1.00
17918;DHT22;9084;50.956;3.106;2024-01-30T13:27:11;10.40;1.00
17918;DHT22;9084;50.956;3.106;2024-01-30T13:29:38;10.50;1.00
17918;DHT22;9084;50.956;3.106;2024-01-30T13:32:04;10.40;1.00
17918;DHT22;9084;50.956;3.106;2024-01-30T13:34:30;10.40;1.00
17918;DHT22;9084;50.956;3.106;2024-01-30T13:36:55;10.40;1.00
17918;DHT22;9084;50.956;3.106;2024-01-30T13:39:22;10.30;1.00
17918;DHT22;9084;50.956;3.106;2024-01-30T13:41:48;10.20;1.00
17918;DHT22;9084;50.956;3.106;2024-01-30T13:44:17;10.20;1.00
17918;DHT22;9084;50.956;3.106;2024-01-30T13:46:43;10.10;1.00
17918;DHT22;9084;50.956;3.106;2024-01-30T13:49:09;10.00;1.00
17918;DHT22;9084;50.956;3.106;2024-01-30T13:51:34;10.00;1.00
17918;DHT22;9084;50.956;3.106;2024-01-30T13:54:00;9.90;1.00
17918;DHT22;9084;50.956;3.106;2024-01-30T13:56:29;9.90;1.00
17918;DHT22;9084;50.956;3.106;2024-01-30T13:58:55;9.80;1.00
17918;DHT22;9084;50.956;3.106;2024-01-30T14:01:22;9.80;1.00
17918;DHT22;9084;50.956;3.106;2024-01-30T14:03:50;9.80;1.00
17918;DHT22;9084;50.956;3.106;2024-01-30T14:06:16;9.80;1.00
17918;DHT22;9084;50.956;3.106;2024-01-30T14:08:41;9.70;1.00
17918;DHT22;9084;50.956;3.106;2024-01-30T14:11:09;9.60;1.00
17918;DHT22;9084;50.956;3.106;2024-01-30T14:13:35;9.60;1.00
17918;DHT22;9084;50.956;3.106;2024-01-30T14:16:01;9.50;1.00
17918;DHT22;9084;50.956;3.106;2024-01-30T14:18:27;9.50;1.00
17918;DHT22;9084;50.956;3.106;2024-01-30T14:20:52;9.50;1.00
17918;DHT22;9084;50.956;3.106;2024-01-30T14:23:18;9.60;1.00
17918;DHT22;9084;50.956;3.106;2024-01-30T14:25:49;9.60;1.00
17918;DHT22;9084;50.956;3.106;2024-01-30T14:28:17;9.60;1.00
17918;DHT22;9084;50.956;3.106;2024-01-30T14:30:43;9.60;1.00
17918;DHT22;9084;50.956;3.106;2024-01-30T14:33:09;9.70;1.00
17918;DHT22;9084;50.956;3.106;2024-01-30T14:35:34;9.70;1.00
17918;DHT22;9084;50.956;3.106;2024-01-30T14:38:00;9.70;1.00
17918;DHT22;9084;50.956;3.106;2024-01-30T14:40:27;9.70;1.00
17918;DHT22;9084;50.956;3.106;2024-01-30T14:42:52;9.70;1.00
17918;DHT22;9084;50.956;3.106;2024-01-30T14:45:23;9.70;1.00
17918;DHT22;9084;50.956;3.106;2024-01-30T14:47:48;9.70;1.00
17918;DHT22;9084;50.956;3.106;2024-01-30T14:50:18;9.70;1.00
17918;DHT22;9084;50.956;3.106;2024-01-30T14:52:43;9.70;1.00
17918;DHT22;9084;50.956;3.106;2024-01-30T14:55:10;9.70;1.00
17918;DHT22;9084;50.956;3.106;2024-01-30T14:57:40;9.70;1.00
17918;DHT22;9084;50.956;3.106;2024-01-30T15:00:10;9.70;1.00
17918;DHT22;9084;50.956;3.106;2024-01-30T15:02:38;9.60;1.00
17918;DHT22;9084;50.956;3.106;2024-01-30T15:05:08;9.60;1.00
17918;DHT22;9084;50.956;3.106;2024-01-30T15:07:36;9.50;1.00
17918;DHT22;9084;50.956;3.106;2024-01-30T15:10:02;9.50;1.00
17918;DHT22;9084;50.956;3.106;2024-01-30T15:12:28;9.50;1.00
17918;DHT22;9084;50.956;3.106;2024-01-30T15:14:54;9.50;1.00
17918;DHT22;9084;50.956;3.106;2024-01-30T15:17:22;9.50;1.00
17918;DHT22;9084;50.956;3.106;2024-01-30T15:19:48;9.50;1.00
17918;DHT22;9084;50.956;3.106;2024-01-30T15:22:16;9.50;1.00
17918;DHT22;9084;50.956;3.106;2024-01-30T15:24:42;9.50;1.00
17918;DHT22;9084;50.956;3.106;2024-01-30T15:27:07;9.50;1.00
17918;DHT22;9084;50.956;3.106;2024-01-30T15:29:33;9.50;1.00
17918;DHT22;9084;50.956;3.106;2024-01-30T15:31:59;9.40;1.00
17918;DHT22;9084;50.956;3.106;2024-01-30T15:34:26;9.40;1.00
17918;DHT22;9084;50.956;3.106;2024-01-30T15:36:52;9.40;1.00
17918;DHT22;9084;50.956;3.106;2024-01-30T15:39:20;9.40;1.00
17918;DHT22;9084;50.956;3.106;2024-01-30T15:41:46;9.40;1.00
17918;DHT22;9084;50.956;3.106;2024-01-30T15:44:11;9.40;1.00
17918;DHT22;9084;50.956;3.106;2024-01-30T15:46:37;9.40;1.00
17918;DHT22;9084;50.956;3.106;2024-01-30T15:49:02;9.40;1.00
17918;DHT22;9084;50.956;3.106;2024-01-30T15:51:34;9.40;1.00
17918;DHT22;9084;50.956;3.106;2024-01-30T15:54:00;9.40;1.00